This is the latest recevied weather packets stored in our database for station/object JI8TEY-15. If no packets are shown the sender has not sent any weather packets the latest 10 day(s).
| Time | Temp. | Humidity | Pressure | Rain* | Wind** | Luminosity | Snow |
|---|---|---|---|---|---|---|---|
| 1788163846 | 21.11° C | 47% | 1016 hPa | 0 mm | - | - | - |
| 1788160246 | 22.22° C | 38% | 1015 hPa | 0 mm | - | - | - |
| 1788156647 | 23.33° C | 37% | 1015 hPa | 0 mm | - | - | - |
| 1788153046 | 23.89° C | 37% | 1014 hPa | 0 mm | - | - | - |
| 1788149447 | 24.44° C | 37% | 1015 hPa | 0 mm | - | - | - |
| 1788145848 | 24.44° C | 37% | 1015 hPa | 0 mm | - | - | - |
| 1788120648 | 16.11° C | 78% | 1013 hPa | 0 mm | - | - | - |
| 1788117047 | 16.67° C | 76% | 1014 hPa | 0 mm | - | - | - |
| 1788113448 | 17.22° C | 75% | 1014 hPa | 0 mm | - | - | - |
| 1788109846 | 17.22° C | 74% | 1013 hPa | 0 mm | - | - | - |
| 1788106247 | 17.22° C | 74% | 1013 hPa | 0 mm | - | - | - |
| 1788102648 | 17.78° C | 72% | 1012 hPa | 0 mm | - | - | - |
| 1788099048 | 17.78° C | 72% | 1013 hPa | 0 mm | - | - | - |
| 1788095448 | 17.78° C | 70% | 1013 hPa | 0 mm | - | - | - |
| 1788088247 | 18.33° C | 69% | 1013 hPa | 0 mm | - | - | - |
| 1788084646 | 18.33° C | 69% | 1012 hPa | 0 mm | - | - | - |
| 1788081046 | 18.89° C | 63% | 1012 hPa | 0 mm | - | - | - |
| 1788077447 | 19.44° C | 52% | 1012 hPa | 0 mm | - | - | - |
| 1788073847 | 21.11° C | 38% | 1012 hPa | 0 mm | - | - | - |
| 1788070247 | 21.67° C | 38% | 1012 hPa | 0 mm | - | - | - |
| 1788066647 | 22.22° C | 38% | 1011 hPa | 0 mm | - | - | - |
| 1788063047 | 22.22° C | 38% | 1013 hPa | 0 mm | - | - | - |
| 1788037847 | 17.22° C | 79% | 1011 hPa | 0 mm | - | - | - |
| 1788034247 | 16.11° C | 80% | 1011 hPa | 0 mm | - | - | - |
| 1788030646 | 16.67° C | 79% | 1011 hPa | 0 mm | - | - | - |
* Rain latest hour (hover to see other rain measurements)
** Current wind speed in m/s (hover to see current wind gust speed)